Time;durP1;ratioP1;P1;durP2;ratioP2;P2;SDS_P1;SDS_P2;PMS_P1;PMS_P2;Temp;Humidity;BMP_temperature;BMP_pressure;BME280_temperature;BME280_humidity;BME280_pressure;Samples;Min_cycle;Max_cycle;Signal;HPM_P1;HPM_P2
2022/06/03 00:00:41;;;;;;;6.15;5.60;;;;;;;13.34;53.88;101441.38;685229;28;1258;-80
2022/06/03 00:01:09;;;;;;;8.55;6.38;;;;;;;13.36;53.96;101440.56;684919;28;1215;-79
2022/06/03 00:02:01;;;;;;;9.63;6.30;;;;;;;13.34;54.11;101436.13;685204;28;1369;-80
2022/06/03 00:02:49;;;;;;;6.90;6.20;;;;;;;13.32;53.93;101437.81;689620;28;1310;-80
2022/06/03 00:03:34;;;;;;;7.20;6.57;;;;;;;13.18;53.87;101419.06;682561;28;1340;-80
2022/06/03 00:04:17;;;;;;;7.03;6.32;;;;;;;13.28;54.02;101440.34;682651;29;1499;-80
2022/06/03 00:04:46;;;;;;;7.03;6.30;;;;;;;13.27;53.82;101440.31;682472;28;1677;-79
2022/06/03 00:05:15;;;;;;;7.03;6.20;;;;;;;13.25;54.20;101441.97;685190;28;1250;-80
2022/06/03 00:05:55;;;;;;;6.85;6.00;;;;;;;13.24;54.23;101440.22;682202;28;1469;-79
2022/06/03 00:06:18;;;;;;;6.82;6.00;;;;;;;13.25;53.95;101444.59;684195;28;1058;-80
2022/06/03 00:07:12;;;;;;;6.82;5.80;;;;;;;13.24;54.31;101445.44;685018;28;1108;-80
2022/06/03 00:08:03;;;;;;;6.60;6.00;;;;;;;13.21;54.41;101441.00;683347;28;1139;-80
2022/06/03 00:08:57;;;;;;;8.02;6.20;;;;;;;13.20;54.39;101438.38;683068;28;1135;-80
2022/06/03 00:09:29;;;;;;;7.45;6.00;;;;;;;13.19;54.63;101442.72;683574;28;1100;-80
2022/06/03 00:10:12;;;;;;;8.50;5.95;;;;;;;13.18;54.84;101440.03;682424;29;1242;-80
2022/06/03 00:10:54;;;;;;;7.45;6.07;;;;;;;13.16;54.88;101433.03;686682;28;1202;-79
2022/06/03 00:11:23;;;;;;;7.07;6.10;;;;;;;13.13;55.06;101434.66;684437;28;1274;-80
2022/06/03 00:12:03;;;;;;;7.40;6.15;;;;;;;13.12;55.17;101430.28;685305;28;1099;-80
2022/06/03 00:12:35;;;;;;;6.55;5.95;;;;;;;13.10;55.08;101432.84;682196;29;1401;-79
2022/06/03 00:13:42;;;;;;;7.05;5.80;;;;;;;12.93;54.88;101408.81;679951;29;1261;-79
2022/06/03 00:14:18;;;;;;;6.15;5.55;;;;;;;13.04;55.16;101430.06;685008;28;1277;-80
2022/06/03 00:15:07;;;;;;;6.97;6.00;;;;;;;13.02;55.25;101429.13;684456;28;1051;-79
2022/06/03 00:15:40;;;;;;;8.25;5.70;;;;;;;12.98;55.50;101417.66;680917;28;1203;-79
2022/06/03 00:16:19;;;;;;;6.55;5.95;;;;;;;12.96;55.61;101419.34;684992;28;1217;-79
2022/06/03 00:16:57;;;;;;;6.85;6.20;;;;;;;12.89;55.44;101422.59;690354;28;1290;-79
2022/06/03 00:18:00;;;;;;;6.57;5.97;;;;;;;12.88;55.61;101419.13;687056;28;1762;-80
2022/06/03 00:18:26;;;;;;;6.80;6.10;;;;;;;12.81;55.68;101414.53;679547;29;1408;-80
2022/06/03 00:19:05;;;;;;;6.80;6.10;;;;;;;12.85;56.03;101413.78;679843;29;1147;-79
2022/06/03 00:19:40;;;;;;;6.55;5.95;;;;;;;12.80;55.82;101412.78;684251;28;1327;-79
2022/06/03 00:20:36;;;;;;;6.60;5.90;;;;;;;12.81;55.88;101419.78;685895;28;1144;-80
2022/06/03 00:21:07;;;;;;;7.15;6.45;;;;;;;12.79;56.21;101410.09;684783;28;933;-79
2022/06/03 00:21:52;;;;;;;7.38;6.47;;;;;;;12.78;56.29;101409.19;685011;28;1278;-80
2022/06/03 00:22:13;;;;;;;7.80;6.60;;;;;;;12.75;56.37;101410.03;685155;28;1304;-79
2022/06/03 00:23:16;;;;;;;8.05;6.70;;;;;;;12.74;56.20;101409.97;686896;28;1173;-79
2022/06/03 00:24:05;;;;;;;8.25;6.40;;;;;;;12.73;56.25;101406.44;684904;28;1381;-80
2022/06/03 00:24:31;;;;;;;7.13;6.20;;;;;;;12.72;56.35;101409.91;688289;28;1969;-80
2022/06/03 00:25:10;;;;;;;6.60;5.90;;;;;;;12.71;56.24;101407.25;690584;28;1311;-80
2022/06/03 00:26:09;;;;;;;7.53;6.35;;;;;;;12.59;56.26;101392.06;684705;28;1263;-80
2022/06/03 00:26:56;;;;;;;7.53;6.82;;;;;;;12.55;56.54;101390.22;685022;28;1669;-80
2022/06/03 00:27:31;;;;;;;8.52;7.18;;;;;;;12.54;56.40;101396.28;681051;28;1014;-80
2022/06/03 00:27:52;;;;;;;7.13;6.43;;;;;;;12.66;56.58;101408.84;677269;29;1131;-79
2022/06/03 00:28:33;;;;;;;6.80;6.20;;;;;;;12.65;56.66;101420.19;681119;28;1158;-79
2022/06/03 00:28:54;;;;;;;7.75;6.35;;;;;;;12.64;56.30;101418.41;681004;29;788;-80
2022/06/03 00:30:53;;;;;;;8.10;7.30;;;;;;;12.58;56.37;101406.91;684930;28;1074;-79
2022/06/03 00:31:32;;;;;;;7.80;7.00;;;;;;;12.58;56.61;101406.91;687409;28;1066;-80
2022/06/03 00:32:04;;;;;;;7.63;6.90;;;;;;;12.59;56.55;101407.75;679823;29;1145;-79
2022/06/03 00:33:04;;;;;;;7.13;6.28;;;;;;;12.61;56.50;101411.34;678298;29;1460;-80
2022/06/03 00:33:56;;;;;;;7.68;6.75;;;;;;;12.58;56.53;101406.91;682478;29;1155;-79
2022/06/03 00:34:43;;;;;;;8.10;6.43;;;;;;;12.51;56.68;101399.69;686507;28;999;-79
2022/06/03 00:35:35;;;;;;;7.30;6.60;;;;;;;12.55;56.52;101409.41;687818;28;1012;-79
2022/06/03 00:36:00;;;;;;;7.47;6.78;;;;;;;12.43;56.79;101396.84;687851;28;1154;-79
2022/06/03 00:36:28;;;;;;;7.10;6.50;;;;;;;12.48;56.55;101410.09;687543;28;1255;-80
2022/06/03 00:37:01;;;;;;;8.27;6.57;;;;;;;12.43;56.86;101390.72;682468;29;1216;-79
2022/06/03 00:37:25;;;;;;;9.30;6.90;;;;;;;12.48;56.53;101403.09;682788;28;1041;-80
2022/06/03 00:38:09;;;;;;;7.78;6.75;;;;;;;12.39;56.73;101389.75;685168;28;1395;-80
2022/06/03 00:38:48;;;;;;;8.02;6.60;;;;;;;12.47;56.93;101403.94;687709;28;1184;-79
2022/06/03 00:39:26;;;;;;;7.65;6.95;;;;;;;12.47;56.69;101408.28;687925;28;1290;-79
2022/06/03 00:39:56;;;;;;;7.38;6.68;;;;;;;12.44;56.99;101405.59;687457;28;1291;-80
2022/06/03 00:40:34;;;;;;;7.55;6.80;;;;;;;12.35;57.09;101393.09;686100;28;1378;-80
2022/06/03 00:41:07;;;;;;;7.00;6.40;;;;;;;12.44;56.89;101402.97;685300;28;897;-80
2022/06/03 00:42:05;;;;;;;7.22;6.53;;;;;;;12.42;57.22;101409.88;685132;28;1127;-80
2022/06/03 00:42:42;;;;;;;7.50;6.38;;;;;;;12.41;57.09;101405.50;679789;29;1152;-79
2022/06/03 00:43:28;;;;;;;7.63;6.60;;;;;;;12.34;57.19;101402.69;682391;29;1293;-80
2022/06/03 00:44:10;;;;;;;7.47;6.78;;;;;;;12.38;57.27;101408.00;682711;28;945;-80
2022/06/03 00:45:18;;;;;;;7.32;6.63;;;;;;;12.36;57.21;101410.59;683689;28;1963;-80
2022/06/03 00:46:03;;;;;;;9.15;7.15;;;;;;;12.34;57.00;101402.69;685628;28;1264;-79
2022/06/03 00:47:01;;;;;;;7.75;6.88;;;;;;;12.34;57.36;101407.03;683129;28;1260;-79
2022/06/03 00:47:47;;;;;;;7.63;6.38;;;;;;;12.28;57.42;101404.25;682361;28;1477;-80
2022/06/03 00:48:19;;;;;;;7.60;6.90;;;;;;;12.31;57.16;101406.94;680275;28;1001;-79
2022/06/03 00:49:16;;;;;;;7.05;6.45;;;;;;;12.24;57.61;101395.41;682461;29;1150;-80
2022/06/03 00:50:14;;;;;;;7.10;6.50;;;;;;;12.21;57.27;101392.69;681941;29;1215;-81
2022/06/03 00:50:49;;;;;;;7.50;6.80;;;;;;;12.27;57.55;101400.72;678277;29;1299;-82
2022/06/03 00:51:21;;;;;;;7.85;7.05;;;;;;;12.27;57.15;101407.66;679400;29;1155;-81
2022/06/03 00:52:05;;;;;;;8.40;7.25;;;;;;;12.28;57.71;101402.50;686638;28;1135;-79
2022/06/03 00:52:44;;;;;;;8.15;7.25;;;;;;;12.20;57.84;101394.41;686985;28;1320;-79
2022/06/03 00:53:13;;;;;;;6.90;6.30;;;;;;;12.18;57.74;101389.97;684845;28;1070;-79
2022/06/03 00:53:58;;;;;;;7.10;6.40;;;;;;;12.24;57.57;101399.75;684288;28;1286;-79
2022/06/03 00:54:19;;;;;;;7.25;6.55;;;;;;;12.25;57.51;101409.34;682493;28;1113;-80
2022/06/03 00:54:56;;;;;;;6.97;6.37;;;;;;;12.22;57.71;101404.91;679716;28;1314;-79
2022/06/03 00:55:40;;;;;;;7.40;6.60;;;;;;;12.22;57.79;101402.28;679889;29;1345;-79
2022/06/03 00:56:19;;;;;;;7.53;6.72;;;;;;;12.14;57.77;101393.31;682690;28;799;-80
2022/06/03 00:57:17;;;;;;;8.43;6.93;;;;;;;12.19;57.82;101396.97;687504;28;1247;-80
2022/06/03 00:57:43;;;;;;;8.00;7.20;;;;;;;12.21;57.81;101395.28;685070;28;1036;-79
2022/06/03 00:58:10;;;;;;;7.38;6.68;;;;;;;12.20;57.94;101396.13;687582;28;1338;-79
2022/06/03 00:58:53;;;;;;;7.10;6.40;;;;;;;12.12;57.93;101387.16;690410;28;1096;-79
2022/06/03 00:59:35;;;;;;;7.00;6.40;;;;;;;12.18;57.90;101398.69;682505;28;1391;-80
2022/06/03 01:00:08;;;;;;;7.00;6.40;;;;;;;12.17;58.14;101396.91;685060;28;902;-79
2022/06/03 01:00:33;;;;;;;7.10;6.45;;;;;;;12.12;57.99;101395.91;685162;28;1150;-79
2022/06/03 01:01:03;;;;;;;7.25;6.57;;;;;;;12.16;58.17;101399.50;682505;28;1130;-80
2022/06/03 01:01:24;;;;;;;7.70;6.90;;;;;;;12.16;58.04;101391.66;679712;29;1199;-80
2022/06/03 01:01:51;;;;;;;7.70;6.90;;;;;;;12.11;57.89;101394.09;682724;28;1161;-80
2022/06/03 01:02:30;;;;;;;7.65;6.95;;;;;;;12.15;58.24;101398.59;679482;29;1048;-80
2022/06/03 01:03:01;;;;;;;8.60;6.55;;;;;;;12.08;57.65;101388.78;687595;28;1280;-79
2022/06/03 01:03:40;;;;;;;8.70;7.30;;;;;;;12.11;58.31;101394.09;682630;28;1049;-80
2022/06/03 01:04:23;;;;;;;7.78;7.00;;;;;;;12.10;58.47;101391.47;687696;28;1145;-80
2022/06/03 01:04:55;;;;;;;7.80;7.00;;;;;;;12.10;58.21;101396.69;684875;28;2023;-79
2022/06/03 01:05:51;;;;;;;7.60;6.80;;;;;;;12.10;58.24;101401.94;682531;28;988;-79
2022/06/03 01:06:23;;;;;;;7.40;6.70;;;;;;;12.05;58.23;101400.03;679616;29;1255;-79
2022/06/03 01:07:11;;;;;;;7.53;6.82;;;;;;;11.98;58.43;101381.50;687177;28;1314;-79
2022/06/03 01:07:46;;;;;;;7.72;6.97;;;;;;;11.99;58.40;101389.38;687666;28;1067;-79
2022/06/03 01:08:23;;;;;;;7.55;6.85;;;;;;;11.96;58.47;101376.22;684370;28;1090;-79
2022/06/03 01:09:06;;;;;;;7.60;6.80;;;;;;;12.02;58.37;101399.94;687726;28;1149;-79
2022/06/03 01:09:45;;;;;;;7.43;6.63;;;;;;;12.04;58.34;101394.78;687547;28;1076;-79
2022/06/03 01:10:25;;;;;;;7.28;6.57;;;;;;;12.03;58.34;101387.75;687644;28;1022;-80
2022/06/03 01:11:08;;;;;;;7.30;6.60;;;;;;;11.93;58.50;101378.72;685054;28;1232;-82
2022/06/03 01:11:50;;;;;;;7.50;6.80;;;;;;;12.01;58.51;101390.34;686793;28;1209;-82
2022/06/03 01:12:45;;;;;;;7.53;6.70;;;;;;;12.00;58.35;101396.41;685069;28;1217;-81
2022/06/03 01:13:25;;;;;;;8.10;7.10;;;;;;;11.91;58.44;101375.16;682433;29;1203;-81
2022/06/03 01:13:55;;;;;;;8.00;7.18;;;;;;;12.01;58.39;101392.94;682475;29;836;-81
2022/06/03 01:14:24;;;;;;;8.00;7.13;;;;;;;11.99;58.37;101388.50;683232;28;1113;-81
2022/06/03 01:14:51;;;;;;;8.75;7.10;;;;;;;12.03;58.44;101396.50;679246;29;1063;-81
2022/06/03 01:15:24;;;;;;;8.50;7.00;;;;;;;12.02;58.44;101392.09;679016;29;1222;-81
2022/06/03 01:15:50;;;;;;;7.72;6.93;;;;;;;12.03;58.32;101398.22;677212;29;1728;-82
2022/06/03 01:16:44;;;;;;;7.30;6.60;;;;;;;11.92;58.62;101376.94;679962;29;989;-81
2022/06/03 01:17:11;;;;;;;7.50;6.80;;;;;;;12.00;58.49;101396.41;681788;29;1175;-81
2022/06/03 01:17:51;;;;;;;7.10;6.50;;;;;;;11.96;58.35;101389.28;683764;28;1287;-81
2022/06/03 01:18:30;;;;;;;7.07;6.47;;;;;;;11.96;58.48;101389.28;687856;28;1127;-81
2022/06/03 01:19:08;;;;;;;7.90;7.10;;;;;;;11.94;58.83;101396.19;682391;28;1102;-81
2022/06/03 01:20:29;;;;;;;7.45;6.75;;;;;;;11.94;58.77;101396.19;685350;28;1833;-81
2022/06/03 01:20:59;;;;;;;9.30;7.28;;;;;;;11.93;58.63;101386.59;680709;29;1127;-81
2022/06/03 01:21:28;;;;;;;11.48;7.18;;;;;;;11.93;58.75;101397.03;683362;28;1311;-82
2022/06/03 01:22:19;;;;;;;9.10;6.53;;;;;;;11.89;58.98;101389.91;682214;29;1361;-81
2022/06/03 01:23:14;;;;;;;7.60;6.90;;;;;;;11.88;58.85;101391.66;682009;29;1196;-81
2022/06/03 01:24:05;;;;;;;7.70;6.90;;;;;;;11.76;59.08;101375.56;684197;28;1393;-81
2022/06/03 01:24:41;;;;;;;8.57;6.80;;;;;;;11.87;59.34;101389.84;684435;28;1935;-81
2022/06/03 01:25:30;;;;;;;9.40;6.80;;;;;;;11.87;59.16;101389.00;682380;29;1213;-81
2022/06/03 01:26:20;;;;;;;8.23;7.20;;;;;;;11.83;59.08;101381.88;682356;29;1235;-81
2022/06/03 01:26:57;;;;;;;7.80;7.00;;;;;;;11.88;59.34;101388.16;684745;28;1220;-81
2022/06/03 01:27:36;;;;;;;8.48;7.60;;;;;;;11.86;59.31;101393.31;682385;28;1283;-82
2022/06/03 01:28:09;;;;;;;8.38;7.00;;;;;;;11.83;59.18;101385.38;682039;28;1703;-81
2022/06/03 01:28:38;;;;;;;8.57;7.15;;;;;;;11.86;59.14;101388.09;682437;29;1120;-81
2022/06/03 01:29:33;;;;;;;8.38;7.45;;;;;;;11.86;59.14;101392.44;681682;29;858;-81
2022/06/03 01:30:11;;;;;;;8.00;7.20;;;;;;;11.81;59.32;101387.06;682283;29;926;-81
2022/06/03 01:30:41;;;;;;;7.78;7.07;;;;;;;11.81;59.34;101389.69;678498;29;1468;-81
2022/06/03 01:31:27;;;;;;;7.70;7.00;;;;;;;11.78;59.55;101386.94;684658;28;1231;-81
2022/06/03 01:32:26;;;;;;;7.80;7.00;;;;;;;11.79;59.43;101392.25;682335;28;1287;-81
2022/06/03 01:33:41;;;;;;;8.05;7.35;;;;;;;11.79;59.64;101392.25;687390;28;1225;-81
2022/06/03 01:34:17;;;;;;;8.25;7.32;;;;;;;11.78;59.32;101395.69;684874;28;1293;-82
2022/06/03 01:34:43;;;;;;;9.60;7.60;;;;;;;11.75;59.31;101389.47;685545;28;1252;-82
2022/06/03 01:35:20;;;;;;;8.73;7.75;;;;;;;11.77;59.45;101382.56;687881;28;1031;-81
2022/06/03 01:36:05;;;;;;;7.80;7.10;;;;;;;11.76;59.48;101394.75;682391;29;1140;-81
2022/06/03 01:36:41;;;;;;;7.60;6.90;;;;;;;11.68;59.25;101383.13;683610;28;1199;-81
2022/06/03 01:37:31;;;;;;;8.82;7.03;;;;;;;11.75;59.46;101389.47;684920;28;1514;-81
2022/06/03 01:37:56;;;;;;;8.07;7.28;;;;;;;11.71;59.54;101385.88;687817;28;1397;-81
2022/06/03 01:38:42;;;;;;;7.60;6.90;;;;;;;11.74;59.56;101391.19;686408;28;1108;-82
2022/06/03 01:39:18;;;;;;;8.00;7.25;;;;;;;11.73;59.27;101389.41;687543;28;990;-81
2022/06/03 01:39:39;;;;;;;8.52;7.63;;;;;;;11.72;59.55;101387.66;685804;28;1159;-81
2022/06/03 01:40:24;;;;;;;9.13;7.55;;;;;;;11.69;59.50;101387.56;685071;28;1299;-82
2022/06/03 01:41:19;;;;;;;7.93;7.13;;;;;;;11.68;59.55;101385.75;679679;29;887;-81
2022/06/03 01:41:49;;;;;;;8.35;7.10;;;;;;;11.54;59.74;101369.56;682393;29;1378;-81
2022/06/03 01:42:39;;;;;;;8.13;7.20;;;;;;;11.58;59.53;101381.03;682416;28;1293;-81
2022/06/03 01:43:06;;;;;;;8.20;7.40;;;;;;;11.61;59.63;101389.00;684398;28;1328;-82
2022/06/03 01:43:47;;;;;;;8.02;7.30;;;;;;;11.60;59.63;101392.41;682230;29;1030;-80
2022/06/03 01:44:32;;;;;;;7.95;7.15;;;;;;;11.59;59.62;101388.03;682342;29;1230;-82
2022/06/03 01:45:02;;;;;;;7.65;6.95;;;;;;;11.59;59.88;101388.94;684129;28;1167;-81
2022/06/03 01:45:40;;;;;;;7.97;7.18;;;;;;;11.56;59.83;101382.72;680048;29;1087;-81
2022/06/03 01:46:20;;;;;;;8.32;7.43;;;;;;;11.57;59.96;101384.47;679794;29;1157;-81
2022/06/03 01:47:15;;;;;;;7.70;7.00;;;;;;;11.54;59.92;101387.88;680308;29;827;-81
2022/06/03 01:48:00;;;;;;;8.20;7.40;;;;;;;11.48;59.90;101380.72;686968;28;1100;-81
2022/06/03 01:48:47;;;;;;;8.23;7.40;;;;;;;11.52;59.96;101382.63;686696;28;1145;-81
2022/06/03 01:49:39;;;;;;;7.97;7.18;;;;;;;11.52;60.14;101382.63;683706;28;1241;-81
2022/06/03 01:50:17;;;;;;;8.15;7.35;;;;;;;11.46;60.11;101371.94;683076;28;1098;-81
2022/06/03 01:51:15;;;;;;;8.25;7.43;;;;;;;11.49;60.25;101387.72;684621;28;1139;-82
2022/06/03 01:51:59;;;;;;;8.70;7.45;;;;;;;11.48;59.98;101383.34;680236;29;1214;-82
2022/06/03 01:52:41;;;;;;;8.38;7.57;;;;;;;11.46;60.28;101376.28;679921;28;1575;-82
2022/06/03 01:53:11;;;;;;;8.60;7.80;;;;;;;11.36;60.50;101370.72;685178;28;799;-81
2022/06/03 01:53:56;;;;;;;8.45;7.65;;;;;;;11.43;60.39;101384.03;685821;28;1092;-81
2022/06/03 01:54:52;;;;;;;9.65;7.80;;;;;;;11.35;60.28;101381.13;682350;29;1167;-81
2022/06/03 01:55:50;;;;;;;9.05;7.50;;;;;;;11.37;60.26;101372.50;682357;29;1308;-82
2022/06/03 01:56:22;;;;;;;8.10;7.40;;;;;;;11.35;60.34;101386.34;685491;28;1436;-81
2022/06/03 01:56:55;;;;;;;8.68;7.88;;;;;;;11.35;60.32;101378.50;687829;28;870;-82
2022/06/03 01:57:40;;;;;;;9.18;8.30;;;;;;;11.34;60.39;101381.97;685034;28;1047;-81
2022/06/03 01:58:19;;;;;;;8.50;7.57;;;;;;;11.32;60.42;101383.66;684979;28;1115;-82
2022/06/03 01:58:39;;;;;;;8.43;7.63;;;;;;;11.31;60.56;101387.09;685044;28;2044;-81
2022/06/03 01:59:13;;;;;;;8.40;7.60;;;;;;;11.33;60.61;101380.19;684687;28;1169;-82
2022/06/03 01:59:49;;;;;;;8.13;7.32;;;;;;;11.32;60.78;101392.34;681665;29;1143;-81
2022/06/03 02:00:34;;;;;;;8.00;7.20;;;;;;;11.32;60.74;101389.75;682295;29;1108;-81
2022/06/03 02:01:02;;;;;;;7.95;7.20;;;;;;;11.28;60.96;101380.03;693051;28;1406;-81
2022/06/03 02:02:00;;;;;;;8.23;7.50;;;;;;;11.31;60.82;101384.47;684959;28;1187;-81
2022/06/03 02:02:48;;;;;;;8.50;7.60;;;;;;;11.29;60.75;101389.66;685648;28;1328;-82
2022/06/03 02:03:39;;;;;;;8.57;7.60;;;;;;;11.29;60.78;101383.56;684631;28;1255;-81
2022/06/03 02:04:26;;;;;;;8.90;7.45;;;;;;;11.29;60.78;101383.56;679723;29;1133;-81
2022/06/03 02:04:47;;;;;;;8.15;7.40;;;;;;;11.30;60.96;101380.09;679601;29;1211;-81
2022/06/03 02:05:18;;;;;;;8.10;7.35;;;;;;;11.18;61.04;101364.88;682281;29;1097;-82
2022/06/03 02:05:54;;;;;;;8.88;7.97;;;;;;;11.30;61.22;101380.97;682130;29;1232;-81
2022/06/03 02:06:42;;;;;;;9.00;7.88;;;;;;;11.31;61.17;101379.25;684457;28;1478;-81
2022/06/03 02:07:18;;;;;;;8.52;7.50;;;;;;;11.24;61.34;101371.19;682358;28;1135;-82
2022/06/03 02:07:51;;;;;;;8.07;7.30;;;;;;;11.18;61.22;101365.75;689981;28;1305;-82
2022/06/03 02:08:36;;;;;;;8.20;7.40;;;;;;;11.28;61.35;101376.53;685105;28;1386;-81
2022/06/03 02:09:09;;;;;;;9.05;7.80;;;;;;;11.15;61.07;101355.22;680363;29;863;-81
2022/06/03 02:09:50;;;;;;;9.23;8.32;;;;;;;11.23;61.39;101378.97;679691;29;1286;-81
2022/06/03 02:10:32;;;;;;;8.77;7.97;;;;;;;11.23;61.32;101377.25;680281;29;1300;-81
2022/06/03 02:11:23;;;;;;;8.57;7.78;;;;;;;11.09;61.22;101355.88;682851;28;855;-81
2022/06/03 02:12:10;;;;;;;9.10;8.00;;;;;;;11.21;61.26;101371.09;682967;29;1245;-81
2022/06/03 02:12:33;;;;;;;8.85;7.95;;;;;;;11.20;61.23;101374.53;682641;28;1774;-81
2022/06/03 02:13:28;;;;;;;9.30;8.02;;;;;;;11.18;61.16;101376.19;680353;29;1372;-81
2022/06/03 02:14:06;;;;;;;9.80;7.88;;;;;;;11.17;61.00;101384.88;682835;29;1280;-81
2022/06/03 02:15:23;;;;;;;8.60;7.70;;;;;;;11.13;61.16;101376.88;684517;28;1492;-81
2022/06/03 02:15:53;;;;;;;9.90;8.70;;;;;;;11.15;61.20;101380.44;686413;28;1427;-81
2022/06/03 02:16:28;;;;;;;10.10;8.65;;;;;;;11.06;61.26;101375.78;683652;28;1372;-81
2022/06/03 02:17:09;;;;;;;9.93;8.70;;;;;;;11.12;61.25;101375.09;688156;28;819;-81
2022/06/03 02:18:02;;;;;;;9.70;8.70;;;;;;;11.09;61.20;101375.88;688593;28;1257;-81
2022/06/03 02:19:24;;;;;;;8.95;8.05;;;;;;;11.10;61.35;101378.56;674951;29;1371;-81
2022/06/03 02:20:01;;;;;;;9.90;8.63;;;;;;;11.07;61.21;101372.34;666586;29;1383;-81
2022/06/03 02:20:46;;;;;;;9.30;8.40;;;;;;;11.07;61.18;101377.56;665641;29;1481;-81
2022/06/03 02:21:15;;;;;;;9.40;8.50;;;;;;;11.09;61.27;101378.50;672259;29;1204;-81
2022/06/03 02:22:07;;;;;;;9.45;8.45;;;;;;;11.09;61.19;101375.88;677339;29;1230;-80
2022/06/03 02:22:52;;;;;;;8.90;8.10;;;;;;;11.09;61.25;101375.88;685455;28;1047;-81
2022/06/03 02:23:31;;;;;;;9.10;8.20;;;;;;;11.04;61.30;101377.44;688109;28;1275;-81
2022/06/03 02:24:03;;;;;;;9.50;8.60;;;;;;;11.03;61.33;101370.44;682883;29;1417;-82
2022/06/03 02:24:32;;;;;;;10.02;9.02;;;;;;;11.06;61.29;101381.00;685680;28;1906;-81
2022/06/03 02:25:15;;;;;;;10.15;9.15;;;;;;;11.06;61.34;101381.00;685572;28;1197;-81
2022/06/03 02:25:54;;;;;;;9.73;8.68;;;;;;;11.01;61.50;101369.50;687365;28;1228;-81
2022/06/03 02:26:37;;;;;;;9.65;8.50;;;;;;;11.05;61.54;101380.09;682472;29;1143;-81
2022/06/03 02:27:30;;;;;;;9.27;8.38;;;;;;;10.96;61.47;101367.59;685504;28;832;-81
2022/06/03 02:28:17;;;;;;;9.30;8.40;;;;;;;11.02;61.54;101385.22;685264;28;1316;-81
2022/06/03 02:28:40;;;;;;;9.68;8.73;;;;;;;11.01;61.54;101377.34;681994;29;1231;-82
2022/06/03 02:30:27;;;;;;;10.27;8.50;;;;;;;10.94;61.58;101373.63;680112;29;1307;-81
2022/06/03 02:31:02;;;;;;;10.88;9.50;;;;;;;10.95;61.47;101380.63;683090;28;1551;-81
2022/06/03 02:31:26;;;;;;;10.82;9.50;;;;;;;10.93;61.54;101372.72;683046;28;1419;-82
2022/06/03 02:32:12;;;;;;;11.50;9.52;;;;;;;10.82;61.51;101361.88;685210;28;931;-81
2022/06/03 02:33:10;;;;;;;10.85;9.77;;;;;;;10.91;61.55;101382.22;684350;28;1147;-81
2022/06/03 02:34:04;;;;;;;11.48;9.40;;;;;;;10.89;61.66;101373.47;682929;28;2094;-81
2022/06/03 02:34:31;;;;;;;10.93;9.82;;;;;;;10.88;61.91;101376.88;681970;28;1120;-81
2022/06/03 02:34:54;;;;;;;10.90;9.80;;;;;;;10.88;62.16;101376.88;682938;29;860;-82
2022/06/03 02:35:36;;;;;;;10.98;9.82;;;;;;;10.88;62.03;101370.78;682927;28;1085;-82
2022/06/03 02:36:41;;;;;;;10.82;9.65;;;;;;;10.87;62.26;101379.44;680354;28;1236;-81
2022/06/03 02:37:24;;;;;;;9.90;8.98;;;;;;;10.86;62.21;101370.72;683411;28;1326;-82
2022/06/03 02:38:22;;;;;;;11.50;9.23;;;;;;;10.85;62.27;101371.56;682904;28;1216;-81
2022/06/03 02:39:01;;;;;;;11.15;10.00;;;;;;;10.85;62.51;101366.34;679095;29;1233;-81
2022/06/03 02:39:56;;;;;;;10.98;9.80;;;;;;;10.74;62.44;101346.78;682523;29;1180;-81
2022/06/03 02:40:26;;;;;;;11.15;9.95;;;;;;;10.84;62.55;101364.56;682225;29;1032;-82
2022/06/03 02:40:49;;;;;;;11.68;10.35;;;;;;;10.83;62.73;101363.66;685529;28;1129;-81
2022/06/03 02:41:29;;;;;;;11.55;10.35;;;;;;;10.82;62.80;101367.09;679878;29;1393;-81
2022/06/03 02:42:14;;;;;;;12.60;10.25;;;;;;;10.82;62.75;101361.00;685383;28;1327;-81
2022/06/03 02:43:01;;;;;;;10.90;9.38;;;;;;;10.69;62.96;101346.59;684536;28;1375;-82
2022/06/03 02:43:25;;;;;;;10.68;9.40;;;;;;;10.78;62.74;101360.00;682535;28;1251;-82
2022/06/03 02:44:04;;;;;;;10.80;9.70;;;;;;;10.79;62.97;101361.78;685448;28;1472;-82
2022/06/03 02:44:42;;;;;;;11.00;9.90;;;;;;;10.69;62.85;101350.09;682560;29;1918;-80
2022/06/03 02:45:03;;;;;;;11.18;9.60;;;;;;;10.74;62.81;101355.50;685389;28;1020;-81
2022/06/03 02:45:48;;;;;;;11.00;9.70;;;;;;;10.64;62.91;101340.34;685444;28;1268;-81
2022/06/03 02:46:25;;;;;;;11.48;10.18;;;;;;;10.62;62.98;101331.56;682505;28;1546;-81
2022/06/03 02:47:05;;;;;;;12.13;9.93;;;;;;;10.68;63.00;101350.94;686717;28;1210;-81
2022/06/03 02:47:39;;;;;;;12.63;9.80;;;;;;;10.67;62.70;101351.78;687313;28;1214;-81
2022/06/03 02:48:51;;;;;;;10.90;9.40;;;;;;;10.68;63.02;101352.66;682478;29;1005;-81
2022/06/03 02:49:22;;;;;;;11.30;10.10;;;;;;;10.68;62.88;101357.88;682234;29;1186;-81
2022/06/03 02:50:20;;;;;;;10.30;9.20;;;;;;;10.67;62.99;101359.59;682107;29;1265;-81
2022/06/03 02:50:59;;;;;;;10.32;9.32;;;;;;;10.65;63.11;101358.66;682755;29;1269;-81
2022/06/03 02:51:46;;;;;;;10.23;9.23;;;;;;;10.63;63.05;101349.88;685357;28;1224;-81
2022/06/03 02:52:24;;;;;;;10.90;9.80;;;;;;;10.60;63.25;101352.38;682754;28;993;-82
2022/06/03 02:52:57;;;;;;;10.88;9.77;;;;;;;10.55;63.13;101346.09;682798;29;1264;-81
2022/06/03 02:53:48;;;;;;;11.50;10.13;;;;;;;10.51;63.19;101345.09;683482;28;1445;-81
2022/06/03 02:54:21;;;;;;;11.25;10.15;;;;;;;10.58;63.13;101354.06;685418;28;1221;-81
2022/06/03 02:55:09;;;;;;;13.85;11.60;;;;;;;10.45;63.27;101336.16;682843;28;2064;-81
2022/06/03 02:56:05;;;;;;;18.08;12.13;;;;;;;10.52;63.28;101348.59;682548;28;1119;-81
2022/06/03 02:56:28;;;;;;;17.75;14.00;;;;;;;10.52;63.11;101348.59;686081;28;1591;-81
2022/06/03 02:57:30;;;;;;;18.17;13.95;;;;;;;10.45;63.66;101344.84;685555;28;815;-81
2022/06/03 02:58:11;;;;;;;19.20;14.20;;;;;;;10.46;63.35;101344.03;682802;28;1134;-81
2022/06/03 02:59:00;;;;;;;18.38;13.23;;;;;;;10.44;63.44;101348.28;684905;28;1688;-81
2022/06/03 02:59:42;;;;;;;16.83;13.23;;;;;;;10.38;63.50;101346.34;687928;28;1182;-81
2022/06/03 03:00:20;;;;;;;17.00;13.25;;;;;;;10.34;63.26;101334.03;685336;28;1149;-81
2022/06/03 03:00:43;;;;;;;17.58;13.85;;;;;;;10.43;63.53;101356.09;682469;29;1134;-81
2022/06/03 03:01:25;;;;;;;17.38;14.00;;;;;;;10.43;63.52;101353.47;682686;28;1339;-81
2022/06/03 03:02:31;;;;;;;16.65;13.63;;;;;;;10.39;63.45;101350.72;682930;29;847;-81
2022/06/03 03:03:13;;;;;;;16.55;13.30;;;;;;;10.39;63.47;101345.50;684360;28;1261;-84
2022/06/03 03:03:43;;;;;;;16.35;12.77;;;;;;;10.40;63.63;101352.50;682801;28;1635;-83
2022/06/03 03:04:42;;;;;;;16.05;12.40;;;;;;;10.31;63.48;101338.25;682735;29;1252;-83
2022/06/03 03:05:38;;;;;;;15.23;12.70;;;;;;;10.38;63.72;101362.00;682467;29;1372;-81
2022/06/03 03:06:41;;;;;;;13.10;11.73;;;;;;;10.31;64.02;101362.59;672101;29;1563;-84
2022/06/03 03:07:13;;;;;;;14.10;11.70;;;;;;;10.27;63.74;101358.97;674589;29;1350;-83
2022/06/03 03:07:54;;;;;;;12.55;11.25;;;;;;;10.26;63.88;101356.31;676417;29;1228;-83
2022/06/03 03:08:27;;;;;;;12.63;11.30;;;;;;;10.27;63.77;101360.72;674764;29;1090;-84
2022/06/03 03:08:56;;;;;;;13.40;11.50;;;;;;;10.26;63.94;101358.94;677860;29;1562;-84
2022/06/03 03:09:41;;;;;;;14.43;12.10;;;;;;;10.26;64.04;101356.31;680111;29;1116;-83
2022/06/03 03:10:14;;;;;;;15.98;12.20;;;;;;;10.14;64.19;101330.63;680088;29;1543;-84
2022/06/03 03:10:35;;;;;;;13.85;12.00;;;;;;;10.18;64.20;101335.13;682489;28;1258;-84
2022/06/03 03:11:11;;;;;;;13.63;12.05;;;;;;;10.18;64.41;101342.06;685450;28;1090;-83
2022/06/03 03:12:10;;;;;;;13.55;11.93;;;;;;;10.24;64.26;101352.75;681674;29;1248;-83
2022/06/03 03:12:31;;;;;;;15.20;12.02;;;;;;;10.25;64.22;101346.69;682698;29;1104;-83
2022/06/03 03:13:13;;;;;;;15.15;12.35;;;;;;;10.26;64.42;101348.50;683441;28;1099;-83
2022/06/03 03:14:11;;;;;;;14.45;12.95;;;;;;;10.28;64.52;101344.22;682498;28;1086;-83
2022/06/03 03:14:53;;;;;;;15.20;13.10;;;;;;;10.27;64.47;101340.72;684730;28;1282;-84
2022/06/03 03:15:35;;;;;;;15.32;13.23;;;;;;;10.28;64.82;101346.84;685579;28;1000;-84
2022/06/03 03:16:17;;;;;;;14.95;13.35;;;;;;;10.25;64.68;101349.31;686253;28;904;-84
2022/06/03 03:17:14;;;;;;;14.30;12.80;;;;;;;10.19;64.64;101343.84;687359;28;1162;-83